sensor_id;sensor_type;location;lat;lon;timestamp;P1;durP1;ratioP1;P2;durP2;ratioP2
31130;SDS011;20292;50.944;4.034;2022-10-15T00:01:26;23.70;;;16.65;;
31130;SDS011;20292;50.944;4.034;2022-10-15T00:03:51;25.85;;;19.42;;
31130;SDS011;20292;50.944;4.034;2022-10-15T00:06:18;24.45;;;17.63;;
31130;SDS011;20292;50.944;4.034;2022-10-15T00:08:45;24.38;;;18.25;;
31130;SDS011;20292;50.944;4.034;2022-10-15T00:11:12;24.08;;;17.15;;
31130;SDS011;20292;50.944;4.034;2022-10-15T00:13:45;25.60;;;18.52;;
31130;SDS011;20292;50.944;4.034;2022-10-15T00:16:12;23.70;;;17.80;;
31130;SDS011;20292;50.944;4.034;2022-10-15T00:18:40;26.90;;;17.88;;
31130;SDS011;20292;50.944;4.034;2022-10-15T00:21:07;24.23;;;18.63;;
31130;SDS011;20292;50.944;4.034;2022-10-15T00:23:34;25.92;;;17.40;;
31130;SDS011;20292;50.944;4.034;2022-10-15T00:26:01;24.60;;;18.65;;
31130;SDS011;20292;50.944;4.034;2022-10-15T00:28:34;23.73;;;18.55;;
31130;SDS011;20292;50.944;4.034;2022-10-15T00:31:01;30.33;;;19.60;;
31130;SDS011;20292;50.944;4.034;2022-10-15T00:33:28;26.98;;;19.77;;
31130;SDS011;20292;50.944;4.034;2022-10-15T00:35:57;26.20;;;18.70;;
31130;SDS011;20292;50.944;4.034;2022-10-15T00:38:27;25.83;;;19.10;;
31130;SDS011;20292;50.944;4.034;2022-10-15T00:40:53;27.45;;;19.30;;
31130;SDS011;20292;50.944;4.034;2022-10-15T00:46:04;29.63;;;20.20;;
31130;SDS011;20292;50.944;4.034;2022-10-15T00:48:36;27.38;;;20.15;;
31130;SDS011;20292;50.944;4.034;2022-10-15T00:51:02;27.17;;;19.17;;
31130;SDS011;20292;50.944;4.034;2022-10-15T00:53:29;30.05;;;19.48;;
31130;SDS011;20292;50.944;4.034;2022-10-15T00:55:55;27.23;;;19.48;;
31130;SDS011;20292;50.944;4.034;2022-10-15T00:58:21;25.73;;;20.05;;
31130;SDS011;20292;50.944;4.034;2022-10-15T01:00:52;26.52;;;19.42;;
31130;SDS011;20292;50.944;4.034;2022-10-15T01:03:19;28.40;;;20.15;;
31130;SDS011;20292;50.944;4.034;2022-10-15T01:05:46;27.25;;;19.35;;
31130;SDS011;20292;50.944;4.034;2022-10-15T01:08:13;32.35;;;20.27;;
31130;SDS011;20292;50.944;4.034;2022-10-15T01:16:11;24.52;;;20.15;;
31130;SDS011;20292;50.944;4.034;2022-10-15T01:19:12;28.35;;;20.38;;
31130;SDS011;20292;50.944;4.034;2022-10-15T01:25:14;26.27;;;19.15;;
31130;SDS011;20292;50.944;4.034;2022-10-15T01:27:50;27.77;;;20.90;;
31130;SDS011;20292;50.944;4.034;2022-10-15T01:30:47;25.85;;;20.50;;
31130;SDS011;20292;50.944;4.034;2022-10-15T01:33:21;29.10;;;20.55;;
31130;SDS011;20292;50.944;4.034;2022-10-15T01:36:05;29.67;;;20.63;;
31130;SDS011;20292;50.944;4.034;2022-10-15T01:38:50;31.98;;;21.75;;
31130;SDS011;20292;50.944;4.034;2022-10-15T01:44:06;32.13;;;21.45;;
31130;SDS011;20292;50.944;4.034;2022-10-15T01:46:42;32.22;;;22.77;;
31130;SDS011;20292;50.944;4.034;2022-10-15T01:49:23;29.63;;;20.67;;
31130;SDS011;20292;50.944;4.034;2022-10-15T01:51:52;32.10;;;21.60;;
31130;SDS011;20292;50.944;4.034;2022-10-15T01:54:20;28.10;;;20.77;;
31130;SDS011;20292;50.944;4.034;2022-10-15T01:56:49;29.02;;;21.23;;
31130;SDS011;20292;50.944;4.034;2022-10-15T01:59:17;31.83;;;22.27;;
31130;SDS011;20292;50.944;4.034;2022-10-15T02:01:45;31.27;;;22.05;;
31130;SDS011;20292;50.944;4.034;2022-10-15T02:04:16;29.77;;;22.25;;
31130;SDS011;20292;50.944;4.034;2022-10-15T02:06:47;32.65;;;22.65;;
31130;SDS011;20292;50.944;4.034;2022-10-15T02:09:24;34.42;;;23.35;;
31130;SDS011;20292;50.944;4.034;2022-10-15T02:12:07;33.55;;;24.00;;
31130;SDS011;20292;50.944;4.034;2022-10-15T02:14:36;34.80;;;23.20;;
31130;SDS011;20292;50.944;4.034;2022-10-15T02:17:16;34.30;;;23.52;;
31130;SDS011;20292;50.944;4.034;2022-10-15T02:19:55;33.35;;;24.02;;
31130;SDS011;20292;50.944;4.034;2022-10-15T02:22:39;32.53;;;24.13;;
31130;SDS011;20292;50.944;4.034;2022-10-15T02:25:21;35.60;;;23.33;;
31130;SDS011;20292;50.944;4.034;2022-10-15T02:27:50;39.00;;;25.38;;
31130;SDS011;20292;50.944;4.034;2022-10-15T02:30:18;35.67;;;24.67;;
31130;SDS011;20292;50.944;4.034;2022-10-15T02:32:45;39.10;;;26.33;;
31130;SDS011;20292;50.944;4.034;2022-10-15T02:35:15;37.47;;;26.80;;
31130;SDS011;20292;50.944;4.034;2022-10-15T02:37:43;33.75;;;24.95;;
31130;SDS011;20292;50.944;4.034;2022-10-15T02:40:12;44.10;;;27.98;;
31130;SDS011;20292;50.944;4.034;2022-10-15T02:42:38;42.53;;;28.70;;
31130;SDS011;20292;50.944;4.034;2022-10-15T02:45:04;47.17;;;29.67;;
31130;SDS011;20292;50.944;4.034;2022-10-15T02:47:30;51.50;;;31.73;;
31130;SDS011;20292;50.944;4.034;2022-10-15T02:49:56;50.63;;;32.15;;
31130;SDS011;20292;50.944;4.034;2022-10-15T02:52:22;51.60;;;31.17;;
31130;SDS011;20292;50.944;4.034;2022-10-15T02:54:47;49.25;;;30.63;;
31130;SDS011;20292;50.944;4.034;2022-10-15T02:57:13;50.30;;;31.85;;
31130;SDS011;20292;50.944;4.034;2022-10-15T02:59:38;49.63;;;30.92;;
31130;SDS011;20292;50.944;4.034;2022-10-15T03:02:04;49.92;;;30.67;;
31130;SDS011;20292;50.944;4.034;2022-10-15T03:04:30;48.70;;;30.40;;
31130;SDS011;20292;50.944;4.034;2022-10-15T03:06:56;52.65;;;30.08;;
31130;SDS011;20292;50.944;4.034;2022-10-15T03:09:21;46.05;;;29.60;;
31130;SDS011;20292;50.944;4.034;2022-10-15T03:11:47;47.83;;;29.27;;
31130;SDS011;20292;50.944;4.034;2022-10-15T03:14:13;48.70;;;29.95;;
31130;SDS011;20292;50.944;4.034;2022-10-15T03:16:38;45.50;;;28.33;;
31130;SDS011;20292;50.944;4.034;2022-10-15T03:19:04;42.53;;;27.55;;
31130;SDS011;20292;50.944;4.034;2022-10-15T03:21:30;45.13;;;26.58;;
31130;SDS011;20292;50.944;4.034;2022-10-15T03:23:56;42.88;;;27.60;;
31130;SDS011;20292;50.944;4.034;2022-10-15T03:26:22;41.83;;;27.45;;
31130;SDS011;20292;50.944;4.034;2022-10-15T03:28:48;40.20;;;25.88;;
31130;SDS011;20292;50.944;4.034;2022-10-15T03:31:14;42.90;;;26.83;;
31130;SDS011;20292;50.944;4.034;2022-10-15T03:33:39;42.90;;;26.40;;
31130;SDS011;20292;50.944;4.034;2022-10-15T03:36:05;36.10;;;23.95;;
31130;SDS011;20292;50.944;4.034;2022-10-15T03:38:32;38.08;;;25.50;;
31130;SDS011;20292;50.944;4.034;2022-10-15T03:40:57;36.92;;;24.90;;
31130;SDS011;20292;50.944;4.034;2022-10-15T03:43:23;37.72;;;24.77;;
31130;SDS011;20292;50.944;4.034;2022-10-15T03:45:49;36.33;;;24.98;;
31130;SDS011;20292;50.944;4.034;2022-10-15T03:48:16;35.38;;;23.00;;
31130;SDS011;20292;50.944;4.034;2022-10-15T03:50:41;31.75;;;22.58;;
31130;SDS011;20292;50.944;4.034;2022-10-15T03:53:07;33.17;;;23.02;;
31130;SDS011;20292;50.944;4.034;2022-10-15T03:55:33;33.78;;;21.50;;
31130;SDS011;20292;50.944;4.034;2022-10-15T03:57:58;31.13;;;22.10;;
31130;SDS011;20292;50.944;4.034;2022-10-15T04:00:24;28.50;;;20.25;;
31130;SDS011;20292;50.944;4.034;2022-10-15T04:02:50;28.02;;;19.58;;
31130;SDS011;20292;50.944;4.034;2022-10-15T04:05:16;26.88;;;19.10;;
31130;SDS011;20292;50.944;4.034;2022-10-15T04:07:42;29.67;;;19.27;;
31130;SDS011;20292;50.944;4.034;2022-10-15T04:10:07;25.63;;;18.50;;
31130;SDS011;20292;50.944;4.034;2022-10-15T04:12:33;26.15;;;19.13;;
31130;SDS011;20292;50.944;4.034;2022-10-15T04:14:58;25.92;;;19.35;;
31130;SDS011;20292;50.944;4.034;2022-10-15T04:17:24;32.50;;;20.83;;
31130;SDS011;20292;50.944;4.034;2022-10-15T04:19:50;26.20;;;18.98;;
31130;SDS011;20292;50.944;4.034;2022-10-15T04:22:16;29.25;;;20.33;;
31130;SDS011;20292;50.944;4.034;2022-10-15T04:24:41;28.85;;;20.38;;
31130;SDS011;20292;50.944;4.034;2022-10-15T04:27:07;33.53;;;22.83;;
31130;SDS011;20292;50.944;4.034;2022-10-15T04:29:32;31.63;;;21.50;;
31130;SDS011;20292;50.944;4.034;2022-10-15T04:31:58;29.30;;;20.50;;
31130;SDS011;20292;50.944;4.034;2022-10-15T04:34:23;29.08;;;20.17;;
31130;SDS011;20292;50.944;4.034;2022-10-15T04:36:49;27.77;;;20.05;;
31130;SDS011;20292;50.944;4.034;2022-10-15T04:39:15;26.02;;;19.48;;
31130;SDS011;20292;50.944;4.034;2022-10-15T04:41:41;27.00;;;18.77;;
31130;SDS011;20292;50.944;4.034;2022-10-15T04:44:07;26.35;;;19.00;;
31130;SDS011;20292;50.944;4.034;2022-10-15T04:46:33;27.63;;;18.10;;
31130;SDS011;20292;50.944;4.034;2022-10-15T04:48:58;28.15;;;19.02;;
31130;SDS011;20292;50.944;4.034;2022-10-15T04:51:25;24.85;;;17.92;;
31130;SDS011;20292;50.944;4.034;2022-10-15T04:53:51;26.40;;;18.05;;
31130;SDS011;20292;50.944;4.034;2022-10-15T04:56:17;28.27;;;18.05;;
31130;SDS011;20292;50.944;4.034;2022-10-15T04:58:45;29.83;;;18.58;;
31130;SDS011;20292;50.944;4.034;2022-10-15T05:01:13;29.52;;;18.25;;
31130;SDS011;20292;50.944;4.034;2022-10-15T05:03:41;26.40;;;18.00;;
31130;SDS011;20292;50.944;4.034;2022-10-15T05:06:10;28.80;;;18.80;;
31130;SDS011;20292;50.944;4.034;2022-10-15T05:08:40;26.63;;;18.05;;
31130;SDS011;20292;50.944;4.034;2022-10-15T05:11:08;25.63;;;18.25;;
31130;SDS011;20292;50.944;4.034;2022-10-15T05:13:38;29.15;;;19.08;;
31130;SDS011;20292;50.944;4.034;2022-10-15T05:19:06;26.08;;;17.27;;
31130;SDS011;20292;50.944;4.034;2022-10-15T05:21:32;30.48;;;19.48;;
31130;SDS011;20292;50.944;4.034;2022-10-15T05:23:59;24.42;;;16.35;;
31130;SDS011;20292;50.944;4.034;2022-10-15T05:26:26;25.80;;;16.05;;
31130;SDS011;20292;50.944;4.034;2022-10-15T05:28:53;26.55;;;17.35;;
31130;SDS011;20292;50.944;4.034;2022-10-15T05:31:21;24.08;;;17.63;;
31130;SDS011;20292;50.944;4.034;2022-10-15T05:33:48;22.88;;;15.73;;
31130;SDS011;20292;50.944;4.034;2022-10-15T05:38:51;23.52;;;14.45;;
31130;SDS011;20292;50.944;4.034;2022-10-15T05:41:18;21.73;;;15.23;;
31130;SDS011;20292;50.944;4.034;2022-10-15T05:43:51;23.77;;;14.20;;
31130;SDS011;20292;50.944;4.034;2022-10-15T05:46:18;22.88;;;15.25;;
31130;SDS011;20292;50.944;4.034;2022-10-15T05:48:50;26.25;;;14.77;;
31130;SDS011;20292;50.944;4.034;2022-10-15T05:51:17;20.02;;;14.18;;
31130;SDS011;20292;50.944;4.034;2022-10-15T05:53:43;21.58;;;13.90;;
31130;SDS011;20292;50.944;4.034;2022-10-15T05:56:10;21.45;;;14.05;;
31130;SDS011;20292;50.944;4.034;2022-10-15T05:58:37;21.02;;;13.73;;
31130;SDS011;20292;50.944;4.034;2022-10-15T06:01:05;20.17;;;13.05;;
31130;SDS011;20292;50.944;4.034;2022-10-15T06:03:32;19.55;;;12.23;;
31130;SDS011;20292;50.944;4.034;2022-10-15T06:05:58;21.65;;;12.52;;
31130;SDS011;20292;50.944;4.034;2022-10-15T06:08:24;19.65;;;11.98;;
31130;SDS011;20292;50.944;4.034;2022-10-15T06:10:49;18.55;;;12.15;;
31130;SDS011;20292;50.944;4.034;2022-10-15T06:13:15;18.33;;;11.82;;
31130;SDS011;20292;50.944;4.034;2022-10-15T06:15:42;16.65;;;11.38;;
31130;SDS011;20292;50.944;4.034;2022-10-15T06:18:09;21.52;;;12.07;;
31130;SDS011;20292;50.944;4.034;2022-10-15T06:20:40;14.10;;;10.00;;
31130;SDS011;20292;50.944;4.034;2022-10-15T06:23:08;15.15;;;10.68;;
31130;SDS011;20292;50.944;4.034;2022-10-15T06:25:34;16.80;;;10.63;;
31130;SDS011;20292;50.944;4.034;2022-10-15T06:28:00;17.55;;;11.88;;
31130;SDS011;20292;50.944;4.034;2022-10-15T06:30:27;18.15;;;11.40;;
31130;SDS011;20292;50.944;4.034;2022-10-15T06:32:53;16.40;;;10.55;;
31130;SDS011;20292;50.944;4.034;2022-10-15T06:35:20;18.60;;;12.02;;
31130;SDS011;20292;50.944;4.034;2022-10-15T06:37:47;20.60;;;11.63;;
31130;SDS011;20292;50.944;4.034;2022-10-15T06:40:12;17.08;;;10.77;;
31130;SDS011;20292;50.944;4.034;2022-10-15T06:42:38;16.80;;;11.52;;
31130;SDS011;20292;50.944;4.034;2022-10-15T06:45:04;16.80;;;11.02;;
31130;SDS011;20292;50.944;4.034;2022-10-15T06:47:31;19.60;;;11.95;;
31130;SDS011;20292;50.944;4.034;2022-10-15T06:49:56;16.27;;;11.35;;
31130;SDS011;20292;50.944;4.034;2022-10-15T06:52:22;16.90;;;11.25;;
31130;SDS011;20292;50.944;4.034;2022-10-15T06:54:48;17.40;;;10.85;;
31130;SDS011;20292;50.944;4.034;2022-10-15T06:57:14;15.60;;;10.23;;
31130;SDS011;20292;50.944;4.034;2022-10-15T06:59:40;18.02;;;12.25;;
31130;SDS011;20292;50.944;4.034;2022-10-15T07:02:05;15.30;;;10.77;;
31130;SDS011;20292;50.944;4.034;2022-10-15T07:04:32;20.95;;;13.18;;
31130;SDS011;20292;50.944;4.034;2022-10-15T07:06:58;20.67;;;11.82;;
31130;SDS011;20292;50.944;4.034;2022-10-15T07:09:24;16.27;;;10.13;;
31130;SDS011;20292;50.944;4.034;2022-10-15T07:11:51;17.55;;;10.70;;
31130;SDS011;20292;50.944;4.034;2022-10-15T07:14:16;19.77;;;11.10;;
31130;SDS011;20292;50.944;4.034;2022-10-15T07:16:42;18.48;;;10.88;;
31130;SDS011;20292;50.944;4.034;2022-10-15T07:19:07;20.63;;;13.88;;
31130;SDS011;20292;50.944;4.034;2022-10-15T07:21:33;17.98;;;10.98;;
31130;SDS011;20292;50.944;4.034;2022-10-15T07:23:58;19.83;;;11.45;;
31130;SDS011;20292;50.944;4.034;2022-10-15T07:26:25;19.88;;;10.65;;
31130;SDS011;20292;50.944;4.034;2022-10-15T07:28:53;17.45;;;11.23;;
31130;SDS011;20292;50.944;4.034;2022-10-15T07:31:19;18.85;;;10.68;;
31130;SDS011;20292;50.944;4.034;2022-10-15T07:33:44;18.42;;;10.48;;
31130;SDS011;20292;50.944;4.034;2022-10-15T07:36:10;16.75;;;10.20;;
31130;SDS011;20292;50.944;4.034;2022-10-15T07:38:39;17.95;;;11.10;;
31130;SDS011;20292;50.944;4.034;2022-10-15T07:41:05;19.17;;;11.18;;
31130;SDS011;20292;50.944;4.034;2022-10-15T07:43:32;16.40;;;9.35;;
31130;SDS011;20292;50.944;4.034;2022-10-15T07:45:58;16.05;;;9.73;;
31130;SDS011;20292;50.944;4.034;2022-10-15T07:48:24;16.80;;;10.20;;
31130;SDS011;20292;50.944;4.034;2022-10-15T07:50:54;15.27;;;9.55;;
31130;SDS011;20292;50.944;4.034;2022-10-15T07:53:24;16.98;;;9.68;;
31130;SDS011;20292;50.944;4.034;2022-10-15T07:55:50;17.25;;;10.55;;
31130;SDS011;20292;50.944;4.034;2022-10-15T07:58:16;14.77;;;9.32;;
31130;SDS011;20292;50.944;4.034;2022-10-15T08:00:42;14.02;;;9.20;;
31130;SDS011;20292;50.944;4.034;2022-10-15T08:03:07;15.40;;;8.40;;
31130;SDS011;20292;50.944;4.034;2022-10-15T08:05:33;16.83;;;10.07;;
31130;SDS011;20292;50.944;4.034;2022-10-15T08:07:59;15.05;;;9.13;;
31130;SDS011;20292;50.944;4.034;2022-10-15T08:10:24;14.85;;;8.27;;
31130;SDS011;20292;50.944;4.034;2022-10-15T08:12:50;11.80;;;8.15;;
31130;SDS011;20292;50.944;4.034;2022-10-15T08:15:16;11.38;;;8.20;;
31130;SDS011;20292;50.944;4.034;2022-10-15T08:17:42;11.75;;;6.90;;
31130;SDS011;20292;50.944;4.034;2022-10-15T08:20:07;10.60;;;6.63;;
31130;SDS011;20292;50.944;4.034;2022-10-15T08:22:33;9.93;;;6.30;;
31130;SDS011;20292;50.944;4.034;2022-10-15T08:24:59;9.77;;;6.03;;
31130;SDS011;20292;50.944;4.034;2022-10-15T08:27:25;9.27;;;5.40;;
31130;SDS011;20292;50.944;4.034;2022-10-15T08:29:50;9.13;;;5.43;;
31130;SDS011;20292;50.944;4.034;2022-10-15T08:32:16;8.07;;;5.63;;
31130;SDS011;20292;50.944;4.034;2022-10-15T08:34:42;10.23;;;5.20;;
31130;SDS011;20292;50.944;4.034;2022-10-15T08:37:07;7.40;;;4.97;;
31130;SDS011;20292;50.944;4.034;2022-10-15T08:39:33;6.20;;;4.47;;
31130;SDS011;20292;50.944;4.034;2022-10-15T08:42:06;6.05;;;4.53;;
31130;SDS011;20292;50.944;4.034;2022-10-15T08:44:43;8.05;;;5.43;;
31130;SDS011;20292;50.944;4.034;2022-10-15T08:49:58;5.43;;;3.92;;
31130;SDS011;20292;50.944;4.034;2022-10-15T08:52:37;5.90;;;3.40;;
31130;SDS011;20292;50.944;4.034;2022-10-15T08:55:11;5.57;;;3.75;;
31130;SDS011;20292;50.944;4.034;2022-10-15T08:57:51;5.68;;;3.50;;
31130;SDS011;20292;50.944;4.034;2022-10-15T09:00:33;3.65;;;3.08;;
31130;SDS011;20292;50.944;4.034;2022-10-15T09:03:10;3.95;;;3.05;;
31130;SDS011;20292;50.944;4.034;2022-10-15T09:11:28;20.73;;;4.68;;
31130;SDS011;20292;50.944;4.034;2022-10-15T09:14:14;31.73;;;5.15;;
31130;SDS011;20292;50.944;4.034;2022-10-15T09:16:45;24.13;;;4.45;;
31130;SDS011;20292;50.944;4.034;2022-10-15T09:19:17;7.78;;;2.90;;
31130;SDS011;20292;50.944;4.034;2022-10-15T09:21:45;4.90;;;2.55;;
31130;SDS011;20292;50.944;4.034;2022-10-15T09:24:14;14.82;;;3.85;;
31130;SDS011;20292;50.944;4.034;2022-10-15T09:29:49;16.13;;;3.72;;
31130;SDS011;20292;50.944;4.034;2022-10-15T09:32:33;9.13;;;2.90;;
31130;SDS011;20292;50.944;4.034;2022-10-15T09:35:14;7.15;;;3.08;;
31130;SDS011;20292;50.944;4.034;2022-10-15T09:43:47;3.80;;;3.05;;
31130;SDS011;20292;50.944;4.034;2022-10-15T09:46:15;3.00;;;2.63;;
31130;SDS011;20292;50.944;4.034;2022-10-15T09:57:55;4.13;;;3.03;;
31130;SDS011;20292;50.944;4.034;2022-10-15T10:00:29;5.00;;;3.33;;
31130;SDS011;20292;50.944;4.034;2022-10-15T10:03:18;3.30;;;2.97;;
31130;SDS011;20292;50.944;4.034;2022-10-15T10:05:47;4.97;;;3.30;;
31130;SDS011;20292;50.944;4.034;2022-10-15T10:08:21;5.85;;;4.75;;
31130;SDS011;20292;50.944;4.034;2022-10-15T10:10:58;4.68;;;3.17;;
31130;SDS011;20292;50.944;4.034;2022-10-15T10:13:30;3.17;;;2.88;;
31130;SDS011;20292;50.944;4.034;2022-10-15T10:16:01;4.60;;;3.03;;
31130;SDS011;20292;50.944;4.034;2022-10-15T10:18:29;4.13;;;2.30;;
31130;SDS011;20292;50.944;4.034;2022-10-15T10:21:00;4.30;;;2.50;;
31130;SDS011;20292;50.944;4.034;2022-10-15T10:23:28;3.67;;;2.38;;
31130;SDS011;20292;50.944;4.034;2022-10-15T10:25:58;2.53;;;2.33;;
31130;SDS011;20292;50.944;4.034;2022-10-15T10:29:10;3.60;;;2.45;;
31130;SDS011;20292;50.944;4.034;2022-10-15T10:31:10;4.50;;;2.33;;
31130;SDS011;20292;50.944;4.034;2022-10-15T10:33:46;3.00;;;2.40;;
31130;SDS011;20292;50.944;4.034;2022-10-15T10:36:23;3.05;;;2.75;;
31130;SDS011;20292;50.944;4.034;2022-10-15T10:39:01;5.13;;;3.38;;
31130;SDS011;20292;50.944;4.034;2022-10-15T10:44:46;3.95;;;3.55;;
31130;SDS011;20292;50.944;4.034;2022-10-15T10:47:13;4.53;;;3.90;;
31130;SDS011;20292;50.944;4.034;2022-10-15T10:49:45;5.32;;;4.60;;
31130;SDS011;20292;50.944;4.034;2022-10-15T10:52:29;6.13;;;4.50;;
31130;SDS011;20292;50.944;4.034;2022-10-15T10:55:18;4.72;;;4.10;;
31130;SDS011;20292;50.944;4.034;2022-10-15T10:57:49;6.97;;;4.70;;
31130;SDS011;20292;50.944;4.034;2022-10-15T11:00:24;6.35;;;4.65;;
31130;SDS011;20292;50.944;4.034;2022-10-15T11:02:58;4.97;;;3.90;;
31130;SDS011;20292;50.944;4.034;2022-10-15T11:05:27;4.72;;;3.85;;
31130;SDS011;20292;50.944;4.034;2022-10-15T11:07:58;4.50;;;3.88;;
31130;SDS011;20292;50.944;4.034;2022-10-15T11:10:44;6.60;;;3.70;;
31130;SDS011;20292;50.944;4.034;2022-10-15T11:16:23;3.35;;;2.28;;
31130;SDS011;20292;50.944;4.034;2022-10-15T11:21:30;3.15;;;1.65;;
31130;SDS011;20292;50.944;4.034;2022-10-15T11:24:22;3.05;;;1.27;;
31130;SDS011;20292;50.944;4.034;2022-10-15T11:29:52;2.45;;;1.20;;
31130;SDS011;20292;50.944;4.034;2022-10-15T11:48:51;1.02;;;0.75;;
31130;SDS011;20292;50.944;4.034;2022-10-15T11:54:37;1.75;;;1.00;;
31130;SDS011;20292;50.944;4.034;2022-10-15T11:57:08;0.98;;;0.70;;
31130;SDS011;20292;50.944;4.034;2022-10-15T11:59:54;1.98;;;0.70;;
31130;SDS011;20292;50.944;4.034;2022-10-15T12:05:03;1.13;;;1.02;;
31130;SDS011;20292;50.944;4.034;2022-10-15T12:07:38;4.05;;;1.02;;
31130;SDS011;20292;50.944;4.034;2022-10-15T12:18:09;6.75;;;1.55;;
31130;SDS011;20292;50.944;4.034;2022-10-15T12:20:44;5.15;;;0.90;;
31130;SDS011;20292;50.944;4.034;2022-10-15T12:28:52;1.10;;;0.90;;
31130;SDS011;20292;50.944;4.034;2022-10-15T12:31:20;1.38;;;0.70;;
31130;SDS011;20292;50.944;4.034;2022-10-15T12:33:55;2.38;;;0.95;;
31130;SDS011;20292;50.944;4.034;2022-10-15T12:39:04;2.97;;;0.98;;
31130;SDS011;20292;50.944;4.034;2022-10-15T12:41:47;5.90;;;1.00;;
31130;SDS011;20292;50.944;4.034;2022-10-15T12:44:19;3.63;;;0.98;;
31130;SDS011;20292;50.944;4.034;2022-10-15T12:46:50;3.92;;;1.10;;
31130;SDS011;20292;50.944;4.034;2022-10-15T12:51:51;3.47;;;0.80;;
31130;SDS011;20292;50.944;4.034;2022-10-15T12:54:34;4.13;;;1.15;;
31130;SDS011;20292;50.944;4.034;2022-10-15T13:02:56;2.58;;;1.00;;
31130;SDS011;20292;50.944;4.034;2022-10-15T13:05:52;4.00;;;1.20;;
31130;SDS011;20292;50.944;4.034;2022-10-15T13:08:22;7.68;;;1.30;;
31130;SDS011;20292;50.944;4.034;2022-10-15T13:10:59;3.88;;;1.10;;
31130;SDS011;20292;50.944;4.034;2022-10-15T13:13:28;3.28;;;1.10;;
31130;SDS011;20292;50.944;4.034;2022-10-15T13:15:59;3.30;;;1.13;;
31130;SDS011;20292;50.944;4.034;2022-10-15T13:18:27;6.03;;;1.30;;
31130;SDS011;20292;50.944;4.034;2022-10-15T13:20:55;4.38;;;1.13;;
31130;SDS011;20292;50.944;4.034;2022-10-15T13:23:23;5.07;;;1.25;;
31130;SDS011;20292;50.944;4.034;2022-10-15T13:26:15;4.50;;;1.42;;
31130;SDS011;20292;50.944;4.034;2022-10-15T13:28:43;4.82;;;1.20;;
31130;SDS011;20292;50.944;4.034;2022-10-15T13:34:02;7.40;;;1.55;;
31130;SDS011;20292;50.944;4.034;2022-10-15T13:36:34;9.20;;;2.17;;
31130;SDS011;20292;50.944;4.034;2022-10-15T13:41:32;4.60;;;1.40;;
31130;SDS011;20292;50.944;4.034;2022-10-15T13:44:00;3.35;;;1.23;;
31130;SDS011;20292;50.944;4.034;2022-10-15T13:46:28;2.55;;;0.98;;
31130;SDS011;20292;50.944;4.034;2022-10-15T13:48:56;5.35;;;1.30;;
31130;SDS011;20292;50.944;4.034;2022-10-15T13:51:24;7.15;;;1.02;;
31130;SDS011;20292;50.944;4.034;2022-10-15T13:53:56;7.55;;;2.20;;
31130;SDS011;20292;50.944;4.034;2022-10-15T13:56:25;4.53;;;1.17;;
31130;SDS011;20292;50.944;4.034;2022-10-15T13:58:53;10.15;;;1.33;;
31130;SDS011;20292;50.944;4.034;2022-10-15T14:01:20;5.18;;;1.50;;
31130;SDS011;20292;50.944;4.034;2022-10-15T14:03:49;7.78;;;1.40;;
31130;SDS011;20292;50.944;4.034;2022-10-15T14:06:17;4.30;;;1.27;;
31130;SDS011;20292;50.944;4.034;2022-10-15T14:08:48;4.45;;;1.20;;
31130;SDS011;20292;50.944;4.034;2022-10-15T14:11:16;6.97;;;1.60;;
31130;SDS011;20292;50.944;4.034;2022-10-15T14:13:47;2.97;;;1.00;;
31130;SDS011;20292;50.944;4.034;2022-10-15T14:16:22;6.03;;;1.60;;
31130;SDS011;20292;50.944;4.034;2022-10-15T14:18:56;6.15;;;1.17;;
31130;SDS011;20292;50.944;4.034;2022-10-15T14:21:31;4.97;;;1.50;;
31130;SDS011;20292;50.944;4.034;2022-10-15T14:24:05;5.28;;;1.20;;
31130;SDS011;20292;50.944;4.034;2022-10-15T14:26:32;9.63;;;1.50;;
31130;SDS011;20292;50.944;4.034;2022-10-15T14:28:58;4.35;;;1.40;;
31130;SDS011;20292;50.944;4.034;2022-10-15T14:31:30;8.85;;;1.50;;
31130;SDS011;20292;50.944;4.034;2022-10-15T14:34:03;7.18;;;1.67;;
31130;SDS011;20292;50.944;4.034;2022-10-15T14:36:30;3.95;;;1.40;;
31130;SDS011;20292;50.944;4.034;2022-10-15T14:41:57;7.13;;;1.30;;
31130;SDS011;20292;50.944;4.034;2022-10-15T14:44:41;8.35;;;1.83;;
31130;SDS011;20292;50.944;4.034;2022-10-15T14:47:18;5.15;;;1.42;;
31130;SDS011;20292;50.944;4.034;2022-10-15T14:49:47;8.18;;;1.58;;
31130;SDS011;20292;50.944;4.034;2022-10-15T14:52:24;5.50;;;1.38;;
31130;SDS011;20292;50.944;4.034;2022-10-15T14:57:38;4.00;;;1.40;;
31130;SDS011;20292;50.944;4.034;2022-10-15T15:00:13;7.90;;;1.45;;
31130;SDS011;20292;50.944;4.034;2022-10-15T15:02:49;5.50;;;1.40;;
31130;SDS011;20292;50.944;4.034;2022-10-15T15:07:43;5.03;;;1.30;;
31130;SDS011;20292;50.944;4.034;2022-10-15T15:10:09;7.32;;;1.35;;
31130;SDS011;20292;50.944;4.034;2022-10-15T15:12:36;6.85;;;1.60;;
31130;SDS011;20292;50.944;4.034;2022-10-15T15:15:03;13.30;;;1.80;;
31130;SDS011;20292;50.944;4.034;2022-10-15T15:17:36;11.52;;;1.77;;
31130;SDS011;20292;50.944;4.034;2022-10-15T15:20:02;5.07;;;1.38;;
31130;SDS011;20292;50.944;4.034;2022-10-15T15:22:32;6.75;;;1.60;;
31130;SDS011;20292;50.944;4.034;2022-10-15T15:24:59;6.15;;;1.45;;
31130;SDS011;20292;50.944;4.034;2022-10-15T15:27:30;8.25;;;1.88;;
31130;SDS011;20292;50.944;4.034;2022-10-15T15:30:01;4.65;;;1.55;;
31130;SDS011;20292;50.944;4.034;2022-10-15T15:32:31;9.18;;;1.73;;
31130;SDS011;20292;50.944;4.034;2022-10-15T15:34:57;6.82;;;1.88;;
31130;SDS011;20292;50.944;4.034;2022-10-15T15:37:24;5.50;;;1.65;;
31130;SDS011;20292;50.944;4.034;2022-10-15T15:39:50;9.98;;;2.25;;
31130;SDS011;20292;50.944;4.034;2022-10-15T15:42:18;7.88;;;1.48;;
31130;SDS011;20292;50.944;4.034;2022-10-15T15:44:45;8.68;;;1.73;;
31130;SDS011;20292;50.944;4.034;2022-10-15T15:47:12;7.80;;;1.60;;
31130;SDS011;20292;50.944;4.034;2022-10-15T15:49:38;6.43;;;1.50;;
31130;SDS011;20292;50.944;4.034;2022-10-15T15:52:09;7.30;;;1.60;;
31130;SDS011;20292;50.944;4.034;2022-10-15T15:54:42;9.93;;;2.35;;
31130;SDS011;20292;50.944;4.034;2022-10-15T15:57:10;8.00;;;2.05;;
31130;SDS011;20292;50.944;4.034;2022-10-15T15:59:36;10.20;;;2.05;;
31130;SDS011;20292;50.944;4.034;2022-10-15T16:02:02;8.00;;;1.60;;
31130;SDS011;20292;50.944;4.034;2022-10-15T16:04:27;8.27;;;1.98;;
31130;SDS011;20292;50.944;4.034;2022-10-15T16:06:53;10.20;;;1.85;;
31130;SDS011;20292;50.944;4.034;2022-10-15T16:09:19;12.43;;;2.33;;
31130;SDS011;20292;50.944;4.034;2022-10-15T16:11:46;6.90;;;1.90;;
31130;SDS011;20292;50.944;4.034;2022-10-15T16:14:12;10.70;;;2.50;;
31130;SDS011;20292;50.944;4.034;2022-10-15T16:16:38;6.05;;;1.83;;
31130;SDS011;20292;50.944;4.034;2022-10-15T16:19:04;7.43;;;1.70;;
31130;SDS011;20292;50.944;4.034;2022-10-15T16:21:30;5.80;;;1.55;;
31130;SDS011;20292;50.944;4.034;2022-10-15T16:23:55;10.57;;;1.50;;
31130;SDS011;20292;50.944;4.034;2022-10-15T16:26:21;6.30;;;1.60;;
31130;SDS011;20292;50.944;4.034;2022-10-15T16:28:47;2.95;;;1.42;;
31130;SDS011;20292;50.944;4.034;2022-10-15T16:31:16;4.88;;;1.38;;
31130;SDS011;20292;50.944;4.034;2022-10-15T16:33:48;8.18;;;1.98;;
31130;SDS011;20292;50.944;4.034;2022-10-15T16:36:14;5.53;;;2.00;;
31130;SDS011;20292;50.944;4.034;2022-10-15T16:38:41;4.13;;;1.67;;
31130;SDS011;20292;50.944;4.034;2022-10-15T16:41:08;6.97;;;1.90;;
31130;SDS011;20292;50.944;4.034;2022-10-15T16:43:35;4.93;;;1.58;;
31130;SDS011;20292;50.944;4.034;2022-10-15T16:46:01;7.43;;;1.67;;